sensor_id;sensor_type;location;lat;lon;timestamp;temperature;humidity
22321;DHT22;11328;53.928;18.522;2022-10-31T00:01:28;13.90;99.90
22321;DHT22;11328;53.928;18.522;2022-10-31T00:04:00;13.90;99.90
22321;DHT22;11328;53.928;18.522;2022-10-31T00:06:27;13.90;99.90
22321;DHT22;11328;53.928;18.522;2022-10-31T00:09:00;14.00;99.90
22321;DHT22;11328;53.928;18.522;2022-10-31T00:11:29;14.00;99.90
22321;DHT22;11328;53.928;18.522;2022-10-31T00:13:57;14.00;99.90
22321;DHT22;11328;53.928;18.522;2022-10-31T00:16:27;14.10;99.90
22321;DHT22;11328;53.928;18.522;2022-10-31T00:18:58;14.10;99.90
22321;DHT22;11328;53.928;18.522;2022-10-31T00:21:27;14.10;99.90
22321;DHT22;11328;53.928;18.522;2022-10-31T00:23:54;14.10;99.90
22321;DHT22;11328;53.928;18.522;2022-10-31T00:26:21;14.20;99.90
22321;DHT22;11328;53.928;18.522;2022-10-31T00:28:48;14.20;99.90
22321;DHT22;11328;53.928;18.522;2022-10-31T00:31:16;14.20;99.90
22321;DHT22;11328;53.928;18.522;2022-10-31T00:33:43;14.20;99.90
22321;DHT22;11328;53.928;18.522;2022-10-31T00:36:13;14.20;99.90
22321;DHT22;11328;53.928;18.522;2022-10-31T00:38:42;14.20;99.90
22321;DHT22;11328;53.928;18.522;2022-10-31T00:41:10;14.20;99.90
22321;DHT22;11328;53.928;18.522;2022-10-31T00:43:38;14.20;99.90
22321;DHT22;11328;53.928;18.522;2022-10-31T00:46:05;14.20;99.90
22321;DHT22;11328;53.928;18.522;2022-10-31T00:48:32;14.20;99.90
22321;DHT22;11328;53.928;18.522;2022-10-31T00:50:59;14.20;99.90
22321;DHT22;11328;53.928;18.522;2022-10-31T00:53:26;14.20;99.90
22321;DHT22;11328;53.928;18.522;2022-10-31T00:55:53;14.20;99.90
22321;DHT22;11328;53.928;18.522;2022-10-31T00:58:20;14.30;99.90
22321;DHT22;11328;53.928;18.522;2022-10-31T01:00:50;14.30;99.90
22321;DHT22;11328;53.928;18.522;2022-10-31T01:03:27;14.30;99.90
22321;DHT22;11328;53.928;18.522;2022-10-31T01:06:04;14.30;99.90
22321;DHT22;11328;53.928;18.522;2022-10-31T01:08:34;14.30;99.90
22321;DHT22;11328;53.928;18.522;2022-10-31T01:13:39;14.30;99.90
22321;DHT22;11328;53.928;18.522;2022-10-31T01:16:08;14.30;99.90
22321;DHT22;11328;53.928;18.522;2022-10-31T01:18:37;14.40;99.90
22321;DHT22;11328;53.928;18.522;2022-10-31T01:21:10;14.40;99.90
22321;DHT22;11328;53.928;18.522;2022-10-31T01:23:39;14.40;99.90
22321;DHT22;11328;53.928;18.522;2022-10-31T01:26:36;14.40;99.90
22321;DHT22;11328;53.928;18.522;2022-10-31T01:29:06;14.40;99.90
22321;DHT22;11328;53.928;18.522;2022-10-31T01:31:37;14.30;99.90
22321;DHT22;11328;53.928;18.522;2022-10-31T01:34:05;14.30;99.90
22321;DHT22;11328;53.928;18.522;2022-10-31T01:36:35;14.20;99.90
22321;DHT22;11328;53.928;18.522;2022-10-31T01:39:12;14.20;99.90
22321;DHT22;11328;53.928;18.522;2022-10-31T01:41:44;14.10;99.90
22321;DHT22;11328;53.928;18.522;2022-10-31T01:49:29;14.00;99.90
22321;DHT22;11328;53.928;18.522;2022-10-31T01:52:12;14.10;99.90
22321;DHT22;11328;53.928;18.522;2022-10-31T01:54:50;14.10;99.90
22321;DHT22;11328;53.928;18.522;2022-10-31T01:57:20;14.10;99.90
22321;DHT22;11328;53.928;18.522;2022-10-31T01:59:52;14.20;99.90
22321;DHT22;11328;53.928;18.522;2022-10-31T02:02:23;14.20;99.90
22321;DHT22;11328;53.928;18.522;2022-10-31T02:04:52;14.20;99.90
22321;DHT22;11328;53.928;18.522;2022-10-31T02:08:15;14.20;99.90
22321;DHT22;11328;53.928;18.522;2022-10-31T02:10:22;14.30;99.90
22321;DHT22;11328;53.928;18.522;2022-10-31T02:12:51;14.30;99.90
22321;DHT22;11328;53.928;18.522;2022-10-31T02:15:22;14.30;99.90
22321;DHT22;11328;53.928;18.522;2022-10-31T02:17:49;14.30;99.90
22321;DHT22;11328;53.928;18.522;2022-10-31T02:20:19;14.30;99.90
22321;DHT22;11328;53.928;18.522;2022-10-31T02:23:02;14.30;99.90
22321;DHT22;11328;53.928;18.522;2022-10-31T02:46:49;14.60;99.90
22321;DHT22;11328;53.928;18.522;2022-10-31T02:52:21;14.70;99.90
22321;DHT22;11328;53.928;18.522;2022-10-31T02:54:57;14.50;99.90
22321;DHT22;11328;53.928;18.522;2022-10-31T02:57:26;14.50;99.90
22321;DHT22;11328;53.928;18.522;2022-10-31T03:00:03;14.60;99.90
22321;DHT22;11328;53.928;18.522;2022-10-31T03:02:47;14.60;99.90
22321;DHT22;11328;53.928;18.522;2022-10-31T03:05:45;14.60;99.90
22321;DHT22;11328;53.928;18.522;2022-10-31T03:08:22;14.50;99.90
22321;DHT22;11328;53.928;18.522;2022-10-31T03:11:00;14.50;99.90
22321;DHT22;11328;53.928;18.522;2022-10-31T03:16:40;14.50;99.90
22321;DHT22;11328;53.928;18.522;2022-10-31T03:19:30;14.50;99.90
22321;DHT22;11328;53.928;18.522;2022-10-31T03:22:10;14.50;99.90
22321;DHT22;11328;53.928;18.522;2022-10-31T03:24:48;14.50;99.90
22321;DHT22;11328;53.928;18.522;2022-10-31T03:27:20;14.60;99.90
22321;DHT22;11328;53.928;18.522;2022-10-31T03:29:52;14.60;99.90
22321;DHT22;11328;53.928;18.522;2022-10-31T03:32:27;14.60;99.90
22321;DHT22;11328;53.928;18.522;2022-10-31T03:35:09;14.60;99.90
22321;DHT22;11328;53.928;18.522;2022-10-31T03:37:39;14.60;99.90
22321;DHT22;11328;53.928;18.522;2022-10-31T03:40:09;14.60;99.90
22321;DHT22;11328;53.928;18.522;2022-10-31T03:42:42;14.60;99.90
22321;DHT22;11328;53.928;18.522;2022-10-31T03:45:23;14.60;99.90
22321;DHT22;11328;53.928;18.522;2022-10-31T03:47:53;14.60;99.90
22321;DHT22;11328;53.928;18.522;2022-10-31T03:50:23;14.60;99.90
22321;DHT22;11328;53.928;18.522;2022-10-31T03:53:04;14.60;99.90
22321;DHT22;11328;53.928;18.522;2022-10-31T03:58:21;14.50;99.90
22321;DHT22;11328;53.928;18.522;2022-10-31T04:00:55;14.50;99.90
22321;DHT22;11328;53.928;18.522;2022-10-31T04:03:28;14.50;99.90
22321;DHT22;11328;53.928;18.522;2022-10-31T04:06:02;14.40;99.90
22321;DHT22;11328;53.928;18.522;2022-10-31T04:08:35;14.50;99.90
22321;DHT22;11328;53.928;18.522;2022-10-31T04:11:08;14.50;99.90
22321;DHT22;11328;53.928;18.522;2022-10-31T04:13:39;14.50;99.90
22321;DHT22;11328;53.928;18.522;2022-10-31T04:16:09;14.50;99.90
22321;DHT22;11328;53.928;18.522;2022-10-31T04:18:43;14.40;99.90
22321;DHT22;11328;53.928;18.522;2022-10-31T04:21:10;14.40;99.90
22321;DHT22;11328;53.928;18.522;2022-10-31T04:23:37;14.40;99.90
22321;DHT22;11328;53.928;18.522;2022-10-31T04:26:04;14.30;99.90
22321;DHT22;11328;53.928;18.522;2022-10-31T04:28:31;14.30;99.90
22321;DHT22;11328;53.928;18.522;2022-10-31T04:31:00;14.20;99.90
22321;DHT22;11328;53.928;18.522;2022-10-31T04:33:27;14.20;99.90
22321;DHT22;11328;53.928;18.522;2022-10-31T04:35:54;14.20;99.90
22321;DHT22;11328;53.928;18.522;2022-10-31T04:38:21;14.20;99.90
22321;DHT22;11328;53.928;18.522;2022-10-31T04:40:48;14.20;99.90
22321;DHT22;11328;53.928;18.522;2022-10-31T04:43:15;14.20;99.90
22321;DHT22;11328;53.928;18.522;2022-10-31T04:45:42;14.20;99.90
22321;DHT22;11328;53.928;18.522;2022-10-31T04:48:09;14.20;99.90
22321;DHT22;11328;53.928;18.522;2022-10-31T04:50:36;14.20;99.90
22321;DHT22;11328;53.928;18.522;2022-10-31T04:53:02;14.20;99.90
22321;DHT22;11328;53.928;18.522;2022-10-31T04:55:30;14.10;99.90
22321;DHT22;11328;53.928;18.522;2022-10-31T04:57:57;14.10;99.90
22321;DHT22;11328;53.928;18.522;2022-10-31T05:00:25;14.20;99.90
22321;DHT22;11328;53.928;18.522;2022-10-31T05:02:54;14.10;99.90
22321;DHT22;11328;53.928;18.522;2022-10-31T05:05:25;14.10;99.90
22321;DHT22;11328;53.928;18.522;2022-10-31T05:07:54;14.20;99.90
22321;DHT22;11328;53.928;18.522;2022-10-31T05:10:24;14.10;99.90
22321;DHT22;11328;53.928;18.522;2022-10-31T05:12:57;14.10;99.90
22321;DHT22;11328;53.928;18.522;2022-10-31T05:15:27;14.10;99.90
22321;DHT22;11328;53.928;18.522;2022-10-31T05:17:55;14.10;99.90
22321;DHT22;11328;53.928;18.522;2022-10-31T05:20:26;14.10;99.90
22321;DHT22;11328;53.928;18.522;2022-10-31T05:22:56;14.10;99.90
22321;DHT22;11328;53.928;18.522;2022-10-31T05:25:26;14.00;99.90
22321;DHT22;11328;53.928;18.522;2022-10-31T05:27:55;14.10;99.90
22321;DHT22;11328;53.928;18.522;2022-10-31T05:30:29;14.10;99.90
22321;DHT22;11328;53.928;18.522;2022-10-31T05:32:57;14.10;99.90
22321;DHT22;11328;53.928;18.522;2022-10-31T05:35:27;14.00;99.90
22321;DHT22;11328;53.928;18.522;2022-10-31T05:37:57;14.00;99.90
22321;DHT22;11328;53.928;18.522;2022-10-31T05:40:25;14.00;99.90
22321;DHT22;11328;53.928;18.522;2022-10-31T05:42:53;14.00;99.90
22321;DHT22;11328;53.928;18.522;2022-10-31T05:45:22;14.00;99.90
22321;DHT22;11328;53.928;18.522;2022-10-31T05:47:54;14.00;99.90
22321;DHT22;11328;53.928;18.522;2022-10-31T05:50:24;14.00;99.90
22321;DHT22;11328;53.928;18.522;2022-10-31T05:53:10;13.90;99.90
22321;DHT22;11328;53.928;18.522;2022-10-31T05:55:37;14.00;99.90
22321;DHT22;11328;53.928;18.522;2022-10-31T05:58:06;13.90;99.90
22321;DHT22;11328;53.928;18.522;2022-10-31T06:00:33;14.00;99.90
22321;DHT22;11328;53.928;18.522;2022-10-31T06:03:04;14.00;99.90
22321;DHT22;11328;53.928;18.522;2022-10-31T06:05:32;14.00;99.90
22321;DHT22;11328;53.928;18.522;2022-10-31T06:07:59;14.00;99.90
22321;DHT22;11328;53.928;18.522;2022-10-31T06:10:27;14.00;99.90
22321;DHT22;11328;53.928;18.522;2022-10-31T06:12:55;14.00;99.90
22321;DHT22;11328;53.928;18.522;2022-10-31T06:15:22;14.00;99.90
22321;DHT22;11328;53.928;18.522;2022-10-31T06:18:04;14.00;99.90
22321;DHT22;11328;53.928;18.522;2022-10-31T06:20:32;14.00;99.90
22321;DHT22;11328;53.928;18.522;2022-10-31T06:23:00;13.90;99.90
22321;DHT22;11328;53.928;18.522;2022-10-31T06:25:28;13.90;99.90
22321;DHT22;11328;53.928;18.522;2022-10-31T06:27:55;13.80;99.90
22321;DHT22;11328;53.928;18.522;2022-10-31T06:30:23;13.90;99.90
22321;DHT22;11328;53.928;18.522;2022-10-31T06:32:51;13.90;99.90
22321;DHT22;11328;53.928;18.522;2022-10-31T06:35:18;13.90;99.90
22321;DHT22;11328;53.928;18.522;2022-10-31T06:37:53;13.80;99.90
22321;DHT22;11328;53.928;18.522;2022-10-31T06:40:20;13.80;99.90
22321;DHT22;11328;53.928;18.522;2022-10-31T06:42:55;13.80;99.90
22321;DHT22;11328;53.928;18.522;2022-10-31T06:45:23;13.80;99.90
22321;DHT22;11328;53.928;18.522;2022-10-31T06:47:54;13.80;99.90
22321;DHT22;11328;53.928;18.522;2022-10-31T06:50:42;13.80;99.90
22321;DHT22;11328;53.928;18.522;2022-10-31T06:53:09;13.80;99.90
22321;DHT22;11328;53.928;18.522;2022-10-31T06:55:41;13.70;99.90
22321;DHT22;11328;53.928;18.522;2022-10-31T06:58:10;13.70;99.90
22321;DHT22;11328;53.928;18.522;2022-10-31T07:00:37;13.70;99.90
22321;DHT22;11328;53.928;18.522;2022-10-31T07:03:10;13.80;99.90
22321;DHT22;11328;53.928;18.522;2022-10-31T07:05:39;13.70;99.90
22321;DHT22;11328;53.928;18.522;2022-10-31T07:08:08;13.70;99.90
22321;DHT22;11328;53.928;18.522;2022-10-31T07:10:39;13.70;99.90
22321;DHT22;11328;53.928;18.522;2022-10-31T07:13:11;13.80;99.90
22321;DHT22;11328;53.928;18.522;2022-10-31T07:15:41;13.80;99.90
22321;DHT22;11328;53.928;18.522;2022-10-31T07:18:11;13.80;99.90
22321;DHT22;11328;53.928;18.522;2022-10-31T07:20:39;13.90;99.90
22321;DHT22;11328;53.928;18.522;2022-10-31T07:23:06;13.90;99.90
22321;DHT22;11328;53.928;18.522;2022-10-31T07:25:33;13.90;99.90
22321;DHT22;11328;53.928;18.522;2022-10-31T07:28:00;13.90;99.90
22321;DHT22;11328;53.928;18.522;2022-10-31T07:30:27;14.00;99.90
22321;DHT22;11328;53.928;18.522;2022-10-31T07:32:54;14.00;99.90
22321;DHT22;11328;53.928;18.522;2022-10-31T07:35:24;14.10;99.90
22321;DHT22;11328;53.928;18.522;2022-10-31T07:37:53;14.10;99.90
22321;DHT22;11328;53.928;18.522;2022-10-31T07:40:24;14.10;99.90
22321;DHT22;11328;53.928;18.522;2022-10-31T07:42:52;14.10;99.90
22321;DHT22;11328;53.928;18.522;2022-10-31T07:45:20;14.10;99.90
22321;DHT22;11328;53.928;18.522;2022-10-31T07:47:49;14.20;99.90
22321;DHT22;11328;53.928;18.522;2022-10-31T07:50:23;14.20;99.90
22321;DHT22;11328;53.928;18.522;2022-10-31T07:53:03;14.20;99.90
22321;DHT22;11328;53.928;18.522;2022-10-31T07:55:32;14.20;99.90
22321;DHT22;11328;53.928;18.522;2022-10-31T07:58:21;14.20;99.90
22321;DHT22;11328;53.928;18.522;2022-10-31T08:00:48;14.30;99.90
22321;DHT22;11328;53.928;18.522;2022-10-31T08:03:17;14.30;99.90
22321;DHT22;11328;53.928;18.522;2022-10-31T08:05:45;14.30;99.90
22321;DHT22;11328;53.928;18.522;2022-10-31T08:08:13;14.30;99.90
22321;DHT22;11328;53.928;18.522;2022-10-31T08:10:41;14.40;99.90
22321;DHT22;11328;53.928;18.522;2022-10-31T08:13:10;14.40;99.90
22321;DHT22;11328;53.928;18.522;2022-10-31T08:15:39;14.40;99.90
22321;DHT22;11328;53.928;18.522;2022-10-31T08:18:14;14.40;99.90
22321;DHT22;11328;53.928;18.522;2022-10-31T08:20:42;14.50;99.90
22321;DHT22;11328;53.928;18.522;2022-10-31T08:23:11;14.50;99.90
22321;DHT22;11328;53.928;18.522;2022-10-31T08:25:40;14.60;99.90
22321;DHT22;11328;53.928;18.522;2022-10-31T08:28:10;14.60;99.90
22321;DHT22;11328;53.928;18.522;2022-10-31T08:30:38;14.60;99.90
22321;DHT22;11328;53.928;18.522;2022-10-31T08:33:12;14.60;99.90
22321;DHT22;11328;53.928;18.522;2022-10-31T08:35:41;14.60;99.90
22321;DHT22;11328;53.928;18.522;2022-10-31T08:38:10;14.60;99.90
22321;DHT22;11328;53.928;18.522;2022-10-31T08:40:39;14.70;99.90
22321;DHT22;11328;53.928;18.522;2022-10-31T08:43:12;14.70;99.90
22321;DHT22;11328;53.928;18.522;2022-10-31T08:45:40;14.80;99.90
22321;DHT22;11328;53.928;18.522;2022-10-31T08:48:13;14.80;99.90
22321;DHT22;11328;53.928;18.522;2022-10-31T08:50:42;14.80;99.90
22321;DHT22;11328;53.928;18.522;2022-10-31T08:53:17;14.90;99.90
22321;DHT22;11328;53.928;18.522;2022-10-31T08:55:46;14.90;99.90
22321;DHT22;11328;53.928;18.522;2022-10-31T08:58:15;14.90;99.90
22321;DHT22;11328;53.928;18.522;2022-10-31T09:00:45;14.90;99.90
22321;DHT22;11328;53.928;18.522;2022-10-31T09:03:16;15.00;99.90
22321;DHT22;11328;53.928;18.522;2022-10-31T09:05:54;15.00;99.90
22321;DHT22;11328;53.928;18.522;2022-10-31T09:08:23;15.00;99.90
22321;DHT22;11328;53.928;18.522;2022-10-31T09:10:50;15.00;99.90
22321;DHT22;11328;53.928;18.522;2022-10-31T09:13:23;15.00;99.90
22321;DHT22;11328;53.928;18.522;2022-10-31T09:15:55;15.00;99.90
22321;DHT22;11328;53.928;18.522;2022-10-31T09:18:24;15.00;99.90
22321;DHT22;11328;53.928;18.522;2022-10-31T09:20:57;15.00;99.90
22321;DHT22;11328;53.928;18.522;2022-10-31T09:23:25;15.10;99.90
22321;DHT22;11328;53.928;18.522;2022-10-31T09:25:53;15.00;99.90
22321;DHT22;11328;53.928;18.522;2022-10-31T09:28:23;15.00;99.90
22321;DHT22;11328;53.928;18.522;2022-10-31T09:30:52;15.00;99.90
22321;DHT22;11328;53.928;18.522;2022-10-31T09:33:21;15.00;99.90
22321;DHT22;11328;53.928;18.522;2022-10-31T09:35:48;15.10;99.90
22321;DHT22;11328;53.928;18.522;2022-10-31T09:38:19;15.10;99.90
22321;DHT22;11328;53.928;18.522;2022-10-31T09:41:19;15.10;99.90
22321;DHT22;11328;53.928;18.522;2022-10-31T09:44:02;15.10;99.90
22321;DHT22;11328;53.928;18.522;2022-10-31T09:52:26;15.10;99.90
22321;DHT22;11328;53.928;18.522;2022-10-31T09:55:20;15.10;99.90
22321;DHT22;11328;53.928;18.522;2022-10-31T09:57:50;14.90;99.90
22321;DHT22;11328;53.928;18.522;2022-10-31T10:00:20;14.90;99.90
22321;DHT22;11328;53.928;18.522;2022-10-31T10:02:57;14.90;99.90
22321;DHT22;11328;53.928;18.522;2022-10-31T10:05:46;14.90;99.90
22321;DHT22;11328;53.928;18.522;2022-10-31T10:08:21;15.00;99.90
22321;DHT22;11328;53.928;18.522;2022-10-31T10:11:16;15.10;99.90
22321;DHT22;11328;53.928;18.522;2022-10-31T10:20:50;15.00;99.90
22321;DHT22;11328;53.928;18.522;2022-10-31T10:26:22;15.00;99.90
22321;DHT22;11328;53.928;18.522;2022-10-31T10:29:34;14.90;99.90
22321;DHT22;11328;53.928;18.522;2022-10-31T10:32:22;15.00;99.90
22321;DHT22;11328;53.928;18.522;2022-10-31T10:34:56;15.00;99.90
22321;DHT22;11328;53.928;18.522;2022-10-31T10:37:39;14.90;99.90
22321;DHT22;11328;53.928;18.522;2022-10-31T10:40:16;15.00;99.90
22321;DHT22;11328;53.928;18.522;2022-10-31T10:51:35;14.90;99.90
22321;DHT22;11328;53.928;18.522;2022-10-31T10:54:41;14.90;99.90
22321;DHT22;11328;53.928;18.522;2022-10-31T11:00:12;14.90;99.90
22321;DHT22;11328;53.928;18.522;2022-10-31T11:02:46;14.90;99.90
22321;DHT22;11328;53.928;18.522;2022-10-31T11:08:03;14.80;99.90
22321;DHT22;11328;53.928;18.522;2022-10-31T11:10:31;14.80;99.90
22321;DHT22;11328;53.928;18.522;2022-10-31T11:16:00;14.70;99.90
22321;DHT22;11328;53.928;18.522;2022-10-31T11:18:45;14.60;99.90
22321;DHT22;11328;53.928;18.522;2022-10-31T11:21:23;14.60;99.90
22321;DHT22;11328;53.928;18.522;2022-10-31T11:24:11;14.60;99.90
22321;DHT22;11328;53.928;18.522;2022-10-31T11:26:44;14.40;99.90
22321;DHT22;11328;53.928;18.522;2022-10-31T11:29:24;14.20;99.90
22321;DHT22;11328;53.928;18.522;2022-10-31T11:31:55;14.20;99.90
22321;DHT22;11328;53.928;18.522;2022-10-31T11:34:37;14.20;99.90
22321;DHT22;11328;53.928;18.522;2022-10-31T11:37:21;14.20;99.90
22321;DHT22;11328;53.928;18.522;2022-10-31T11:40:00;14.30;99.90
22321;DHT22;11328;53.928;18.522;2022-10-31T11:42:37;14.30;99.90
22321;DHT22;11328;53.928;18.522;2022-10-31T11:47:49;14.30;99.90
22321;DHT22;11328;53.928;18.522;2022-10-31T11:50:29;14.20;99.90
22321;DHT22;11328;53.928;18.522;2022-10-31T11:53:09;14.00;99.90
22321;DHT22;11328;53.928;18.522;2022-10-31T11:55:41;13.90;99.90
22321;DHT22;11328;53.928;18.522;2022-10-31T11:58:34;13.90;99.90
22321;DHT22;11328;53.928;18.522;2022-10-31T12:01:01;13.80;99.90
22321;DHT22;11328;53.928;18.522;2022-10-31T12:03:53;13.90;99.90
22321;DHT22;11328;53.928;18.522;2022-10-31T12:06:37;13.90;99.90
22321;DHT22;11328;53.928;18.522;2022-10-31T12:09:26;13.80;99.90
22321;DHT22;11328;53.928;18.522;2022-10-31T12:24:12;14.00;99.90
22321;DHT22;11328;53.928;18.522;2022-10-31T12:39:30;14.30;99.90
22321;DHT22;11328;53.928;18.522;2022-10-31T12:44:56;14.30;99.90
22321;DHT22;11328;53.928;18.522;2022-10-31T13:01:18;14.30;99.90
22321;DHT22;11328;53.928;18.522;2022-10-31T13:04:19;15.30;99.90
22321;DHT22;11328;53.928;18.522;2022-10-31T13:07:05;15.30;99.90
22321;DHT22;11328;53.928;18.522;2022-10-31T13:09:54;15.20;99.90
22321;DHT22;11328;53.928;18.522;2022-10-31T13:12:29;15.00;99.90
22321;DHT22;11328;53.928;18.522;2022-10-31T13:15:20;14.90;99.90
22321;DHT22;11328;53.928;18.522;2022-10-31T13:18:12;15.00;99.90
22321;DHT22;11328;53.928;18.522;2022-10-31T13:20:50;14.90;99.90
22321;DHT22;11328;53.928;18.522;2022-10-31T13:23:33;14.80;99.90
22321;DHT22;11328;53.928;18.522;2022-10-31T13:30:12;14.80;99.90
22321;DHT22;11328;53.928;18.522;2022-10-31T13:46:37;14.50;99.90
22321;DHT22;11328;53.928;18.522;2022-10-31T13:54:46;14.80;99.90
22321;DHT22;11328;53.928;18.522;2022-10-31T13:57:38;14.70;99.90
22321;DHT22;11328;53.928;18.522;2022-10-31T14:02:50;14.80;99.90
22321;DHT22;11328;53.928;18.522;2022-10-31T14:05:30;14.80;99.90
22321;DHT22;11328;53.928;18.522;2022-10-31T14:08:02;14.80;99.90
22321;DHT22;11328;53.928;18.522;2022-10-31T14:10:37;14.90;99.90
22321;DHT22;11328;53.928;18.522;2022-10-31T14:13:26;14.80;99.90
22321;DHT22;11328;53.928;18.522;2022-10-31T14:16:02;14.90;99.90
22321;DHT22;11328;53.928;18.522;2022-10-31T14:18:36;15.00;99.90
22321;DHT22;11328;53.928;18.522;2022-10-31T14:21:29;15.00;99.90
22321;DHT22;11328;53.928;18.522;2022-10-31T14:23:57;15.00;99.90
22321;DHT22;11328;53.928;18.522;2022-10-31T14:29:01;14.90;99.90
22321;DHT22;11328;53.928;18.522;2022-10-31T14:38:14;14.90;99.90
22321;DHT22;11328;53.928;18.522;2022-10-31T14:47:00;15.00;99.90
22321;DHT22;11328;53.928;18.522;2022-10-31T14:52:36;15.10;99.90
22321;DHT22;11328;53.928;18.522;2022-10-31T14:55:07;15.10;99.90
22321;DHT22;11328;53.928;18.522;2022-10-31T14:57:53;15.00;99.90
22321;DHT22;11328;53.928;18.522;2022-10-31T15:00:24;15.00;99.90
22321;DHT22;11328;53.928;18.522;2022-10-31T15:05:53;14.80;99.90
22321;DHT22;11328;53.928;18.522;2022-10-31T15:08:34;14.70;99.90
22321;DHT22;11328;53.928;18.522;2022-10-31T15:11:14;14.80;99.90
22321;DHT22;11328;53.928;18.522;2022-10-31T15:13:43;14.80;99.90
22321;DHT22;11328;53.928;18.522;2022-10-31T15:16:39;14.90;99.90
22321;DHT22;11328;53.928;18.522;2022-10-31T15:19:16;15.00;99.90
22321;DHT22;11328;53.928;18.522;2022-10-31T15:21:51;15.00;99.90
22321;DHT22;11328;53.928;18.522;2022-10-31T15:24:20;15.00;99.90
22321;DHT22;11328;53.928;18.522;2022-10-31T15:26:51;15.10;99.90
22321;DHT22;11328;53.928;18.522;2022-10-31T15:29:21;15.10;99.90
22321;DHT22;11328;53.928;18.522;2022-10-31T15:31:55;14.90;99.90
22321;DHT22;11328;53.928;18.522;2022-10-31T15:34:41;15.00;99.90
22321;DHT22;11328;53.928;18.522;2022-10-31T15:37:15;14.90;99.90
22321;DHT22;11328;53.928;18.522;2022-10-31T15:39:44;15.00;99.90
22321;DHT22;11328;53.928;18.522;2022-10-31T15:45:37;14.90;99.90
22321;DHT22;11328;53.928;18.522;2022-10-31T15:47:44;14.90;99.90
22321;DHT22;11328;53.928;18.522;2022-10-31T15:53:23;14.90;99.90
22321;DHT22;11328;53.928;18.522;2022-10-31T15:56:18;14.80;99.90
22321;DHT22;11328;53.928;18.522;2022-10-31T15:58:50;14.70;99.90
22321;DHT22;11328;53.928;18.522;2022-10-31T16:01:30;14.70;99.90
22321;DHT22;11328;53.928;18.522;2022-10-31T16:04:02;14.80;99.90
22321;DHT22;11328;53.928;18.522;2022-10-31T16:06:33;14.80;99.90
22321;DHT22;11328;53.928;18.522;2022-10-31T16:09:03;14.80;99.90
22321;DHT22;11328;53.928;18.522;2022-10-31T16:11:48;14.90;99.90
22321;DHT22;11328;53.928;18.522;2022-10-31T16:14:18;14.90;99.90
22321;DHT22;11328;53.928;18.522;2022-10-31T16:16:54;14.90;99.90
22321;DHT22;11328;53.928;18.522;2022-10-31T16:19:34;14.90;99.90
22321;DHT22;11328;53.928;18.522;2022-10-31T16:22:09;14.90;99.90
22321;DHT22;11328;53.928;18.522;2022-10-31T16:24:59;15.00;99.90
22321;DHT22;11328;53.928;18.522;2022-10-31T16:27:34;15.10;99.90
22321;DHT22;11328;53.928;18.522;2022-10-31T16:33:34;15.30;99.90
22321;DHT22;11328;53.928;18.522;2022-10-31T16:36:29;15.40;99.90
22321;DHT22;11328;53.928;18.522;2022-10-31T16:39:02;15.40;99.90
22321;DHT22;11328;53.928;18.522;2022-10-31T16:41:30;15.40;99.90
22321;DHT22;11328;53.928;18.522;2022-10-31T16:44:02;15.40;99.90
22321;DHT22;11328;53.928;18.522;2022-10-31T16:46:32;15.50;99.90
22321;DHT22;11328;53.928;18.522;2022-10-31T16:48:59;15.50;99.90
22321;DHT22;11328;53.928;18.522;2022-10-31T16:51:25;15.60;99.90
22321;DHT22;11328;53.928;18.522;2022-10-31T16:53:52;15.80;99.90
22321;DHT22;11328;53.928;18.522;2022-10-31T16:56:33;15.90;99.90
22321;DHT22;11328;53.928;18.522;2022-10-31T16:59:05;16.10;99.90
22321;DHT22;11328;53.928;18.522;2022-10-31T17:01:45;16.10;99.90
22321;DHT22;11328;53.928;18.522;2022-10-31T17:04:15;16.20;99.90
22321;DHT22;11328;53.928;18.522;2022-10-31T17:06:42;16.30;99.90
22321;DHT22;11328;53.928;18.522;2022-10-31T17:09:09;16.30;99.90
22321;DHT22;11328;53.928;18.522;2022-10-31T17:11:41;16.40;99.90
22321;DHT22;11328;53.928;18.522;2022-10-31T17:14:16;16.40;99.90
22321;DHT22;11328;53.928;18.522;2022-10-31T17:16:44;16.40;99.90
22321;DHT22;11328;53.928;18.522;2022-10-31T17:19:11;16.50;99.90
22321;DHT22;11328;53.928;18.522;2022-10-31T17:21:39;16.50;99.90
22321;DHT22;11328;53.928;18.522;2022-10-31T17:24:12;16.50;99.90
22321;DHT22;11328;53.928;18.522;2022-10-31T17:26:40;16.50;99.90
22321;DHT22;11328;53.928;18.522;2022-10-31T17:29:07;16.50;99.90
22321;DHT22;11328;53.928;18.522;2022-10-31T17:31:35;16.50;99.90
22321;DHT22;11328;53.928;18.522;2022-10-31T17:34:05;16.60;99.90
22321;DHT22;11328;53.928;18.522;2022-10-31T17:36:38;16.50;99.90
22321;DHT22;11328;53.928;18.522;2022-10-31T17:39:05;16.50;99.90
22321;DHT22;11328;53.928;18.522;2022-10-31T17:41:35;16.50;99.90
22321;DHT22;11328;53.928;18.522;2022-10-31T17:44:02;16.60;99.90
22321;DHT22;11328;53.928;18.522;2022-10-31T17:46:29;16.60;99.90
22321;DHT22;11328;53.928;18.522;2022-10-31T17:49:00;16.60;99.90
22321;DHT22;11328;53.928;18.522;2022-10-31T17:51:38;16.60;99.90
22321;DHT22;11328;53.928;18.522;2022-10-31T17:54:13;16.40;99.90
22321;DHT22;11328;53.928;18.522;2022-10-31T17:56:52;16.40;99.90
22321;DHT22;11328;53.928;18.522;2022-10-31T17:59:23;16.40;99.90
22321;DHT22;11328;53.928;18.522;2022-10-31T18:01:58;16.40;99.90
22321;DHT22;11328;53.928;18.522;2022-10-31T18:04:26;16.40;99.90
22321;DHT22;11328;53.928;18.522;2022-10-31T18:06:54;16.40;99.90
22321;DHT22;11328;53.928;18.522;2022-10-31T18:09:21;16.40;99.90
22321;DHT22;11328;53.928;18.522;2022-10-31T18:11:48;16.30;99.90
22321;DHT22;11328;53.928;18.522;2022-10-31T18:14:15;16.20;99.90
22321;DHT22;11328;53.928;18.522;2022-10-31T18:16:41;16.10;99.90
22321;DHT22;11328;53.928;18.522;2022-10-31T18:19:13;16.10;99.90
22321;DHT22;11328;53.928;18.522;2022-10-31T18:21:44;16.10;99.90
22321;DHT22;11328;53.928;18.522;2022-10-31T18:24:12;16.00;99.90
22321;DHT22;11328;53.928;18.522;2022-10-31T18:26:39;16.10;99.90
22321;DHT22;11328;53.928;18.522;2022-10-31T18:29:06;16.10;99.90
22321;DHT22;11328;53.928;18.522;2022-10-31T18:31:33;16.10;99.90
22321;DHT22;11328;53.928;18.522;2022-10-31T18:34:00;16.20;99.90
22321;DHT22;11328;53.928;18.522;2022-10-31T18:36:27;16.10;99.90
22321;DHT22;11328;53.928;18.522;2022-10-31T18:38:54;16.10;99.90
22321;DHT22;11328;53.928;18.522;2022-10-31T18:41:21;16.10;99.90
22321;DHT22;11328;53.928;18.522;2022-10-31T18:43:48;16.10;99.90